Monte — V2FS2 — position and weather

sailwx.info

Track history (hours):
 
Tides and Currents Weather Stations Pressure Air Temp Water Temp Dewpoint Dewpoint Depression Visibility Wind Speed Wind Dir Waves Ship Positions

Monte

Last reported at 2014-Oct-24 18:15 UTC. Time now 2014-Oct-25 20:42 UTC.
Position N 55°41' E 015°36'.

Length 104 m; draft 3.7 m.

Type: Cargo ship. MMSI: 305777000.

Date/timePositionNaut miles runAvg speedWind from/ knotsBaromVisibWave heightAir tempDewpointWater temp
2014-Oct-24 18:15N 55°41' E 015°36'7 9.6
2014-Oct-24 17:29N 55°37' E 015°24'9 9.8
2014-Oct-24 16:32N 55°33' E 015°10'1110.8
2014-Oct-24 15:33N 55°28' E 014°54'1111.2
2014-Oct-24 14:33N 55°22' E 014°37'1111.4
2014-Oct-24 13:33N 55°13' E 014°24'1211.6
2014-Oct-24 12:33N 55°04' E 014°11'1110.9
2014-Oct-24 11:34N 54°59' E 013°55'51 9.5
2014-Oct-24 06:13N 54°37' E 012°35'811.3
2014-Oct-24 05:33N 54°33' E 012°24'1110.9
2014-Oct-24 04:33N 54°26' E 012°11'1111.1
2014-Oct-24 03:32N 54°21' E 011°53'2511.3
2014-Oct-24 01:21N 54°09' E 011°16'  
2014-Oct-15 09:32N 54°17' E 011°36'10 9.4
2014-Oct-15 08:29N 54°22' E 011°50'85 9.1
2014-Oct-14 23:10N 54°53' E 014°06'6 9.4
2014-Oct-14 22:33N 54°54' E 014°16'10 9.8
2014-Oct-14 21:33N 54°55' E 014°33'1010.0
2014-Oct-14 20:33N 54°55' E 014°50'10 9.9
2014-Oct-14 19:33N 54°57' E 015°07'9 9.5
2014-Oct-14 18:33N 55°00' E 015°23'  
Track history (hours):
 
Tides and Currents Weather Stations Pressure Air Temp Water Temp Dewpoint Dewpoint Depression Visibility Wind Speed Wind Dir Waves Ship Positions

Monte

Last reported at 2014-Oct-24 18:15 UTC. Time now 2014-Oct-25 20:42 UTC.
Position N 55°41' E 015°36'.

Length 104 m; draft 3.7 m.

Type: Cargo ship. MMSI: 305777000.

Date/timePositionNaut miles runAvg speedWind from/ knotsBaromVisibWave heightAir tempDewpointWater temp
2014-Oct-24 18:15N 55°41' E 015°36'7 9.6
2014-Oct-24 17:29N 55°37' E 015°24'9 9.8
2014-Oct-24 16:32N 55°33' E 015°10'1110.8
2014-Oct-24 15:33N 55°28' E 014°54'1111.2
2014-Oct-24 14:33N 55°22' E 014°37'1111.4
2014-Oct-24 13:33N 55°13' E 014°24'1211.6
2014-Oct-24 12:33N 55°04' E 014°11'1110.9
2014-Oct-24 11:34N 54°59' E 013°55'51 9.5
2014-Oct-24 06:13N 54°37' E 012°35'811.3
2014-Oct-24 05:33N 54°33' E 012°24'1110.9
2014-Oct-24 04:33N 54°26' E 012°11'1111.1
2014-Oct-24 03:32N 54°21' E 011°53'2511.3
2014-Oct-24 01:21N 54°09' E 011°16'  
2014-Oct-15 09:32N 54°17' E 011°36'10 9.4
2014-Oct-15 08:29N 54°22' E 011°50'85 9.1
2014-Oct-14 23:10N 54°53' E 014°06'6 9.4
2014-Oct-14 22:33N 54°54' E 014°16'10 9.8
2014-Oct-14 21:33N 54°55' E 014°33'1010.0
2014-Oct-14 20:33N 54°55' E 014°50'10 9.9
2014-Oct-14 19:33N 54°57' E 015°07'9 9.5
2014-Oct-14 18:33N 55°00' E 015°23'  

Dump ship's entire track history